sensor_id;sensor_type;location;lat;lon;timestamp;P1;durP1;ratioP1;P2;durP2;ratioP2
19879;SDS011;10102;50.828;4.416;2024-03-08T00:00:26;23.02;;;12.73;;
19879;SDS011;10102;50.828;4.416;2024-03-08T00:02:52;27.50;;;13.40;;
19879;SDS011;10102;50.828;4.416;2024-03-08T00:05:19;27.65;;;13.68;;
19879;SDS011;10102;50.828;4.416;2024-03-08T00:07:45;25.10;;;12.27;;
19879;SDS011;10102;50.828;4.416;2024-03-08T00:10:12;23.48;;;12.40;;
19879;SDS011;10102;50.828;4.416;2024-03-08T00:12:38;27.13;;;12.20;;
19879;SDS011;10102;50.828;4.416;2024-03-08T00:15:11;24.98;;;12.98;;
19879;SDS011;10102;50.828;4.416;2024-03-08T00:17:41;26.55;;;13.10;;
19879;SDS011;10102;50.828;4.416;2024-03-08T00:20:08;26.38;;;13.32;;
19879;SDS011;10102;50.828;4.416;2024-03-08T00:22:34;22.23;;;12.13;;
19879;SDS011;10102;50.828;4.416;2024-03-08T00:25:01;25.90;;;12.65;;
19879;SDS011;10102;50.828;4.416;2024-03-08T00:27:31;24.20;;;12.50;;
19879;SDS011;10102;50.828;4.416;2024-03-08T00:29:59;22.75;;;13.25;;
19879;SDS011;10102;50.828;4.416;2024-03-08T00:32:25;25.23;;;12.80;;
19879;SDS011;10102;50.828;4.416;2024-03-08T00:34:52;24.90;;;13.48;;
19879;SDS011;10102;50.828;4.416;2024-03-08T00:37:21;25.98;;;13.50;;
19879;SDS011;10102;50.828;4.416;2024-03-08T00:39:50;29.95;;;13.73;;
19879;SDS011;10102;50.828;4.416;2024-03-08T00:42:19;28.05;;;13.68;;
19879;SDS011;10102;50.828;4.416;2024-03-08T00:44:46;31.80;;;13.40;;
19879;SDS011;10102;50.828;4.416;2024-03-08T00:47:16;30.02;;;13.73;;
19879;SDS011;10102;50.828;4.416;2024-03-08T00:49:41;31.73;;;14.15;;
19879;SDS011;10102;50.828;4.416;2024-03-08T00:52:08;25.65;;;13.13;;
19879;SDS011;10102;50.828;4.416;2024-03-08T00:54:34;30.10;;;14.30;;
19879;SDS011;10102;50.828;4.416;2024-03-08T00:57:03;31.80;;;13.88;;
19879;SDS011;10102;50.828;4.416;2024-03-08T00:59:29;27.45;;;13.93;;
19879;SDS011;10102;50.828;4.416;2024-03-08T01:01:58;25.85;;;13.77;;
19879;SDS011;10102;50.828;4.416;2024-03-08T01:04:25;29.60;;;14.15;;
19879;SDS011;10102;50.828;4.416;2024-03-08T01:06:54;28.80;;;14.60;;
19879;SDS011;10102;50.828;4.416;2024-03-08T01:09:21;25.25;;;12.73;;
19879;SDS011;10102;50.828;4.416;2024-03-08T01:11:51;26.25;;;13.65;;
19879;SDS011;10102;50.828;4.416;2024-03-08T01:14:19;24.60;;;13.63;;
19879;SDS011;10102;50.828;4.416;2024-03-08T01:16:47;32.05;;;14.30;;
19879;SDS011;10102;50.828;4.416;2024-03-08T01:19:14;27.60;;;13.65;;
19879;SDS011;10102;50.828;4.416;2024-03-08T01:21:40;26.02;;;13.85;;
19879;SDS011;10102;50.828;4.416;2024-03-08T01:24:06;27.52;;;13.73;;
19879;SDS011;10102;50.828;4.416;2024-03-08T01:26:32;28.15;;;14.57;;
19879;SDS011;10102;50.828;4.416;2024-03-08T01:28:59;28.67;;;14.05;;
19879;SDS011;10102;50.828;4.416;2024-03-08T01:31:28;26.60;;;14.25;;
19879;SDS011;10102;50.828;4.416;2024-03-08T01:33:54;25.15;;;14.50;;
19879;SDS011;10102;50.828;4.416;2024-03-08T01:36:21;28.13;;;14.73;;
19879;SDS011;10102;50.828;4.416;2024-03-08T01:38:46;28.95;;;15.13;;
19879;SDS011;10102;50.828;4.416;2024-03-08T01:41:12;28.15;;;14.35;;
19879;SDS011;10102;50.828;4.416;2024-03-08T01:43:39;30.70;;;15.52;;
19879;SDS011;10102;50.828;4.416;2024-03-08T01:46:05;25.38;;;14.02;;
19879;SDS011;10102;50.828;4.416;2024-03-08T01:48:33;32.85;;;15.15;;
19879;SDS011;10102;50.828;4.416;2024-03-08T01:50:59;25.20;;;14.70;;
19879;SDS011;10102;50.828;4.416;2024-03-08T01:53:26;27.42;;;14.73;;
19879;SDS011;10102;50.828;4.416;2024-03-08T01:55:54;27.95;;;14.27;;
19879;SDS011;10102;50.828;4.416;2024-03-08T01:58:23;29.25;;;15.63;;
19879;SDS011;10102;50.828;4.416;2024-03-08T02:00:49;28.73;;;15.73;;
19879;SDS011;10102;50.828;4.416;2024-03-08T02:03:18;30.27;;;15.35;;
19879;SDS011;10102;50.828;4.416;2024-03-08T02:05:44;27.15;;;15.23;;
19879;SDS011;10102;50.828;4.416;2024-03-08T02:08:10;30.83;;;14.32;;
19879;SDS011;10102;50.828;4.416;2024-03-08T02:10:45;32.25;;;16.58;;
19879;SDS011;10102;50.828;4.416;2024-03-08T02:13:11;29.85;;;14.88;;
19879;SDS011;10102;50.828;4.416;2024-03-08T02:15:56;30.00;;;16.15;;
19879;SDS011;10102;50.828;4.416;2024-03-08T02:18:25;37.85;;;15.20;;
19879;SDS011;10102;50.828;4.416;2024-03-08T02:20:53;31.83;;;15.88;;
19879;SDS011;10102;50.828;4.416;2024-03-08T02:23:23;26.35;;;15.05;;
19879;SDS011;10102;50.828;4.416;2024-03-08T02:25:52;27.60;;;16.15;;
19879;SDS011;10102;50.828;4.416;2024-03-08T02:28:19;29.20;;;15.68;;
19879;SDS011;10102;50.828;4.416;2024-03-08T02:30:51;29.30;;;15.15;;
19879;SDS011;10102;50.828;4.416;2024-03-08T02:33:23;32.55;;;16.15;;
19879;SDS011;10102;50.828;4.416;2024-03-08T02:35:49;24.63;;;14.68;;
19879;SDS011;10102;50.828;4.416;2024-03-08T02:38:16;37.53;;;15.70;;
19879;SDS011;10102;50.828;4.416;2024-03-08T02:40:46;30.67;;;16.83;;
19879;SDS011;10102;50.828;4.416;2024-03-08T02:43:14;26.20;;;15.25;;
19879;SDS011;10102;50.828;4.416;2024-03-08T02:45:40;30.67;;;16.63;;
19879;SDS011;10102;50.828;4.416;2024-03-08T02:48:10;27.85;;;16.13;;
19879;SDS011;10102;50.828;4.416;2024-03-08T02:50:36;30.55;;;17.65;;
19879;SDS011;10102;50.828;4.416;2024-03-08T02:53:02;27.85;;;16.88;;
19879;SDS011;10102;50.828;4.416;2024-03-08T02:55:29;30.73;;;16.15;;
19879;SDS011;10102;50.828;4.416;2024-03-08T02:57:55;27.17;;;16.25;;
19879;SDS011;10102;50.828;4.416;2024-03-08T03:00:21;28.70;;;16.65;;
19879;SDS011;10102;50.828;4.416;2024-03-08T03:02:51;31.83;;;16.88;;
19879;SDS011;10102;50.828;4.416;2024-03-08T03:05:20;30.20;;;17.23;;
19879;SDS011;10102;50.828;4.416;2024-03-08T03:07:46;34.40;;;16.70;;
19879;SDS011;10102;50.828;4.416;2024-03-08T03:10:13;33.83;;;17.23;;
19879;SDS011;10102;50.828;4.416;2024-03-08T03:12:42;26.30;;;17.05;;
19879;SDS011;10102;50.828;4.416;2024-03-08T03:15:10;30.00;;;16.02;;
19879;SDS011;10102;50.828;4.416;2024-03-08T03:17:36;31.40;;;17.88;;
19879;SDS011;10102;50.828;4.416;2024-03-08T03:20:04;33.60;;;16.95;;
19879;SDS011;10102;50.828;4.416;2024-03-08T03:22:36;32.97;;;18.10;;
19879;SDS011;10102;50.828;4.416;2024-03-08T03:25:02;32.47;;;17.15;;
19879;SDS011;10102;50.828;4.416;2024-03-08T03:27:29;29.40;;;17.95;;
19879;SDS011;10102;50.828;4.416;2024-03-08T03:29:55;30.00;;;17.00;;
19879;SDS011;10102;50.828;4.416;2024-03-08T03:32:23;32.78;;;16.98;;
19879;SDS011;10102;50.828;4.416;2024-03-08T03:34:49;31.65;;;17.75;;
19879;SDS011;10102;50.828;4.416;2024-03-08T03:37:18;33.58;;;17.63;;
19879;SDS011;10102;50.828;4.416;2024-03-08T03:39:45;29.95;;;17.85;;
19879;SDS011;10102;50.828;4.416;2024-03-08T03:42:14;33.92;;;19.20;;
19879;SDS011;10102;50.828;4.416;2024-03-08T03:44:42;32.15;;;18.48;;
19879;SDS011;10102;50.828;4.416;2024-03-08T03:47:10;36.25;;;17.70;;
19879;SDS011;10102;50.828;4.416;2024-03-08T03:49:36;30.67;;;17.05;;
19879;SDS011;10102;50.828;4.416;2024-03-08T03:52:02;37.22;;;17.90;;
19879;SDS011;10102;50.828;4.416;2024-03-08T03:54:29;36.00;;;18.83;;
19879;SDS011;10102;50.828;4.416;2024-03-08T03:56:55;29.02;;;17.60;;
19879;SDS011;10102;50.828;4.416;2024-03-08T03:59:21;32.80;;;18.55;;
19879;SDS011;10102;50.828;4.416;2024-03-08T04:01:47;30.50;;;17.55;;
19879;SDS011;10102;50.828;4.416;2024-03-08T04:04:14;30.48;;;17.10;;
19879;SDS011;10102;50.828;4.416;2024-03-08T04:06:40;32.65;;;18.67;;
19879;SDS011;10102;50.828;4.416;2024-03-08T04:09:06;29.45;;;17.85;;
19879;SDS011;10102;50.828;4.416;2024-03-08T04:11:32;32.28;;;17.05;;
19879;SDS011;10102;50.828;4.416;2024-03-08T04:13:58;31.58;;;18.13;;
19879;SDS011;10102;50.828;4.416;2024-03-08T04:16:24;29.98;;;17.70;;
19879;SDS011;10102;50.828;4.416;2024-03-08T04:18:51;31.33;;;16.75;;
19879;SDS011;10102;50.828;4.416;2024-03-08T04:21:17;27.67;;;16.75;;
19879;SDS011;10102;50.828;4.416;2024-03-08T04:23:45;32.08;;;18.40;;
19879;SDS011;10102;50.828;4.416;2024-03-08T04:26:11;31.65;;;17.45;;
19879;SDS011;10102;50.828;4.416;2024-03-08T04:28:38;29.45;;;18.42;;
19879;SDS011;10102;50.828;4.416;2024-03-08T04:31:05;36.88;;;19.63;;
19879;SDS011;10102;50.828;4.416;2024-03-08T04:33:31;32.42;;;17.25;;
19879;SDS011;10102;50.828;4.416;2024-03-08T04:35:57;32.22;;;19.10;;
19879;SDS011;10102;50.828;4.416;2024-03-08T04:38:23;32.55;;;18.55;;
19879;SDS011;10102;50.828;4.416;2024-03-08T04:40:50;31.73;;;18.73;;
19879;SDS011;10102;50.828;4.416;2024-03-08T04:43:16;36.78;;;18.77;;
19879;SDS011;10102;50.828;4.416;2024-03-08T04:45:43;28.15;;;17.27;;
19879;SDS011;10102;50.828;4.416;2024-03-08T04:48:09;35.28;;;18.30;;
19879;SDS011;10102;50.828;4.416;2024-03-08T04:50:36;32.55;;;18.48;;
19879;SDS011;10102;50.828;4.416;2024-03-08T04:53:03;33.05;;;18.60;;
19879;SDS011;10102;50.828;4.416;2024-03-08T04:55:33;29.05;;;17.80;;
19879;SDS011;10102;50.828;4.416;2024-03-08T04:57:59;31.42;;;17.33;;
19879;SDS011;10102;50.828;4.416;2024-03-08T05:00:25;30.98;;;17.40;;
19879;SDS011;10102;50.828;4.416;2024-03-08T05:02:51;33.72;;;18.63;;
19879;SDS011;10102;50.828;4.416;2024-03-08T05:05:18;32.35;;;18.38;;
19879;SDS011;10102;50.828;4.416;2024-03-08T05:07:44;33.30;;;18.52;;
19879;SDS011;10102;50.828;4.416;2024-03-08T05:10:10;32.85;;;17.58;;
19879;SDS011;10102;50.828;4.416;2024-03-08T05:12:36;32.30;;;18.30;;
19879;SDS011;10102;50.828;4.416;2024-03-08T05:15:04;33.85;;;17.85;;
19879;SDS011;10102;50.828;4.416;2024-03-08T05:17:32;31.10;;;18.48;;
19879;SDS011;10102;50.828;4.416;2024-03-08T05:19:57;33.00;;;18.58;;
19879;SDS011;10102;50.828;4.416;2024-03-08T05:22:23;30.20;;;18.13;;
19879;SDS011;10102;50.828;4.416;2024-03-08T05:24:49;31.85;;;18.13;;
19879;SDS011;10102;50.828;4.416;2024-03-08T05:27:15;35.45;;;18.65;;
19879;SDS011;10102;50.828;4.416;2024-03-08T05:29:41;33.47;;;18.35;;
19879;SDS011;10102;50.828;4.416;2024-03-08T05:32:07;36.40;;;18.13;;
19879;SDS011;10102;50.828;4.416;2024-03-08T05:34:32;36.15;;;18.08;;
19879;SDS011;10102;50.828;4.416;2024-03-08T05:36:59;33.53;;;17.60;;
19879;SDS011;10102;50.828;4.416;2024-03-08T05:39:25;33.83;;;17.88;;
19879;SDS011;10102;50.828;4.416;2024-03-08T05:41:51;31.92;;;17.38;;
19879;SDS011;10102;50.828;4.416;2024-03-08T05:44:17;34.30;;;17.13;;
19879;SDS011;10102;50.828;4.416;2024-03-08T05:46:42;33.45;;;18.50;;
19879;SDS011;10102;50.828;4.416;2024-03-08T05:49:08;33.80;;;18.60;;
19879;SDS011;10102;50.828;4.416;2024-03-08T05:51:39;30.75;;;17.70;;
19879;SDS011;10102;50.828;4.416;2024-03-08T05:54:08;32.45;;;18.00;;
19879;SDS011;10102;50.828;4.416;2024-03-08T05:56:36;38.33;;;18.70;;
19879;SDS011;10102;50.828;4.416;2024-03-08T05:59:03;33.53;;;17.77;;
19879;SDS011;10102;50.828;4.416;2024-03-08T06:01:29;32.58;;;17.15;;
19879;SDS011;10102;50.828;4.416;2024-03-08T06:03:56;34.38;;;17.42;;
19879;SDS011;10102;50.828;4.416;2024-03-08T06:06:25;35.65;;;18.17;;
19879;SDS011;10102;50.828;4.416;2024-03-08T06:08:51;38.15;;;18.40;;
19879;SDS011;10102;50.828;4.416;2024-03-08T06:11:18;31.33;;;17.08;;
19879;SDS011;10102;50.828;4.416;2024-03-08T06:13:45;33.22;;;17.55;;
19879;SDS011;10102;50.828;4.416;2024-03-08T06:16:11;33.13;;;17.23;;
19879;SDS011;10102;50.828;4.416;2024-03-08T06:18:37;34.70;;;17.05;;
19879;SDS011;10102;50.828;4.416;2024-03-08T06:21:04;33.33;;;18.55;;
19879;SDS011;10102;50.828;4.416;2024-03-08T06:23:34;34.65;;;18.50;;
19879;SDS011;10102;50.828;4.416;2024-03-08T06:26:09;37.15;;;17.17;;
19879;SDS011;10102;50.828;4.416;2024-03-08T06:28:35;32.05;;;18.45;;
19879;SDS011;10102;50.828;4.416;2024-03-08T06:31:01;32.38;;;18.20;;
19879;SDS011;10102;50.828;4.416;2024-03-08T06:33:36;34.05;;;18.77;;
19879;SDS011;10102;50.828;4.416;2024-03-08T06:36:02;36.67;;;18.23;;
19879;SDS011;10102;50.828;4.416;2024-03-08T06:38:28;30.50;;;17.27;;
19879;SDS011;10102;50.828;4.416;2024-03-08T06:40:55;34.08;;;19.02;;
19879;SDS011;10102;50.828;4.416;2024-03-08T06:43:21;31.98;;;17.52;;
19879;SDS011;10102;50.828;4.416;2024-03-08T06:45:48;33.80;;;17.85;;
19879;SDS011;10102;50.828;4.416;2024-03-08T06:48:15;35.38;;;18.63;;
19879;SDS011;10102;50.828;4.416;2024-03-08T06:50:42;32.85;;;17.70;;
19879;SDS011;10102;50.828;4.416;2024-03-08T06:53:09;35.50;;;17.98;;
19879;SDS011;10102;50.828;4.416;2024-03-08T06:55:35;35.15;;;18.63;;
19879;SDS011;10102;50.828;4.416;2024-03-08T06:58:01;30.38;;;17.23;;
19879;SDS011;10102;50.828;4.416;2024-03-08T07:00:27;36.92;;;18.50;;
19879;SDS011;10102;50.828;4.416;2024-03-08T07:02:56;33.03;;;17.75;;
19879;SDS011;10102;50.828;4.416;2024-03-08T07:05:26;32.92;;;17.13;;
19879;SDS011;10102;50.828;4.416;2024-03-08T07:07:52;35.20;;;18.13;;
19879;SDS011;10102;50.828;4.416;2024-03-08T07:10:20;31.02;;;17.30;;
19879;SDS011;10102;50.828;4.416;2024-03-08T07:12:46;33.65;;;18.15;;
19879;SDS011;10102;50.828;4.416;2024-03-08T07:15:12;32.30;;;17.20;;
19879;SDS011;10102;50.828;4.416;2024-03-08T07:17:41;34.38;;;17.48;;
19879;SDS011;10102;50.828;4.416;2024-03-08T07:20:09;30.40;;;16.58;;
19879;SDS011;10102;50.828;4.416;2024-03-08T07:22:37;32.55;;;17.20;;
19879;SDS011;10102;50.828;4.416;2024-03-08T07:25:06;31.75;;;17.05;;
19879;SDS011;10102;50.828;4.416;2024-03-08T07:27:35;30.25;;;17.90;;
19879;SDS011;10102;50.828;4.416;2024-03-08T07:30:01;33.67;;;17.90;;
19879;SDS011;10102;50.828;4.416;2024-03-08T07:32:27;30.25;;;17.40;;
19879;SDS011;10102;50.828;4.416;2024-03-08T07:34:55;37.80;;;19.00;;
19879;SDS011;10102;50.828;4.416;2024-03-08T07:37:21;38.47;;;17.58;;
19879;SDS011;10102;50.828;4.416;2024-03-08T07:39:47;36.67;;;17.48;;
19879;SDS011;10102;50.828;4.416;2024-03-08T07:42:13;34.65;;;16.15;;
19879;SDS011;10102;50.828;4.416;2024-03-08T07:44:38;30.92;;;18.00;;
19879;SDS011;10102;50.828;4.416;2024-03-08T07:47:05;31.55;;;16.17;;
19879;SDS011;10102;50.828;4.416;2024-03-08T07:49:34;32.17;;;16.88;;
19879;SDS011;10102;50.828;4.416;2024-03-08T07:52:03;33.53;;;17.55;;
19879;SDS011;10102;50.828;4.416;2024-03-08T07:54:30;34.47;;;17.20;;
19879;SDS011;10102;50.828;4.416;2024-03-08T07:56:55;30.92;;;16.60;;
19879;SDS011;10102;50.828;4.416;2024-03-08T07:59:21;30.52;;;17.10;;
19879;SDS011;10102;50.828;4.416;2024-03-08T08:01:47;35.50;;;17.98;;
19879;SDS011;10102;50.828;4.416;2024-03-08T08:04:13;33.83;;;17.10;;
19879;SDS011;10102;50.828;4.416;2024-03-08T08:06:43;29.35;;;16.30;;
19879;SDS011;10102;50.828;4.416;2024-03-08T08:09:09;35.55;;;17.33;;
19879;SDS011;10102;50.828;4.416;2024-03-08T08:11:39;31.17;;;17.38;;
19879;SDS011;10102;50.828;4.416;2024-03-08T08:14:06;28.63;;;16.45;;
19879;SDS011;10102;50.828;4.416;2024-03-08T08:16:34;33.22;;;18.00;;
19879;SDS011;10102;50.828;4.416;2024-03-08T08:19:02;28.95;;;16.63;;
19879;SDS011;10102;50.828;4.416;2024-03-08T08:21:34;29.42;;;17.27;;
19879;SDS011;10102;50.828;4.416;2024-03-08T08:24:02;31.42;;;17.55;;
19879;SDS011;10102;50.828;4.416;2024-03-08T08:26:28;30.60;;;16.63;;
19879;SDS011;10102;50.828;4.416;2024-03-08T08:28:54;27.80;;;16.40;;
19879;SDS011;10102;50.828;4.416;2024-03-08T08:31:20;29.45;;;16.27;;
19879;SDS011;10102;50.828;4.416;2024-03-08T08:33:46;32.05;;;16.40;;
19879;SDS011;10102;50.828;4.416;2024-03-08T08:36:14;30.08;;;16.67;;
19879;SDS011;10102;50.828;4.416;2024-03-08T08:38:40;33.10;;;16.55;;
19879;SDS011;10102;50.828;4.416;2024-03-08T08:41:09;28.63;;;15.10;;
19879;SDS011;10102;50.828;4.416;2024-03-08T08:43:36;30.05;;;16.83;;
19879;SDS011;10102;50.828;4.416;2024-03-08T08:46:02;32.92;;;16.52;;
19879;SDS011;10102;50.828;4.416;2024-03-08T08:48:28;29.27;;;16.02;;
19879;SDS011;10102;50.828;4.416;2024-03-08T08:50:55;34.38;;;16.70;;
19879;SDS011;10102;50.828;4.416;2024-03-08T08:53:21;28.65;;;15.93;;
19879;SDS011;10102;50.828;4.416;2024-03-08T08:55:47;28.77;;;15.70;;
19879;SDS011;10102;50.828;4.416;2024-03-08T08:58:13;28.77;;;15.52;;
19879;SDS011;10102;50.828;4.416;2024-03-08T09:00:40;31.08;;;15.60;;
19879;SDS011;10102;50.828;4.416;2024-03-08T09:03:05;30.17;;;15.35;;
19879;SDS011;10102;50.828;4.416;2024-03-08T09:05:35;27.00;;;14.20;;
19879;SDS011;10102;50.828;4.416;2024-03-08T09:08:00;30.45;;;16.17;;
19879;SDS011;10102;50.828;4.416;2024-03-08T09:10:28;27.08;;;15.30;;
19879;SDS011;10102;50.828;4.416;2024-03-08T09:12:53;24.80;;;15.15;;
19879;SDS011;10102;50.828;4.416;2024-03-08T09:15:20;31.25;;;14.98;;
19879;SDS011;10102;50.828;4.416;2024-03-08T09:17:46;26.83;;;15.85;;
19879;SDS011;10102;50.828;4.416;2024-03-08T09:20:13;27.60;;;14.93;;
19879;SDS011;10102;50.828;4.416;2024-03-08T09:22:44;28.77;;;14.15;;
19879;SDS011;10102;50.828;4.416;2024-03-08T09:25:10;27.25;;;15.25;;
19879;SDS011;10102;50.828;4.416;2024-03-08T09:27:36;31.20;;;15.77;;
19879;SDS011;10102;50.828;4.416;2024-03-08T09:30:03;28.75;;;15.40;;
19879;SDS011;10102;50.828;4.416;2024-03-08T09:32:30;28.92;;;15.45;;
19879;SDS011;10102;50.828;4.416;2024-03-08T09:35:02;27.75;;;15.65;;
19879;SDS011;10102;50.828;4.416;2024-03-08T09:37:28;25.13;;;14.65;;
19879;SDS011;10102;50.828;4.416;2024-03-08T09:40:00;36.05;;;15.57;;
19879;SDS011;10102;50.828;4.416;2024-03-08T09:42:35;23.00;;;14.05;;
19879;SDS011;10102;50.828;4.416;2024-03-08T09:45:08;26.63;;;13.85;;
19879;SDS011;10102;50.828;4.416;2024-03-08T09:47:36;23.48;;;13.52;;
19879;SDS011;10102;50.828;4.416;2024-03-08T09:50:06;25.38;;;15.00;;
19879;SDS011;10102;50.828;4.416;2024-03-08T09:52:37;27.83;;;14.73;;
19879;SDS011;10102;50.828;4.416;2024-03-08T09:55:05;24.38;;;14.00;;
19879;SDS011;10102;50.828;4.416;2024-03-08T09:57:33;26.13;;;15.40;;
19879;SDS011;10102;50.828;4.416;2024-03-08T10:00:01;26.52;;;14.93;;
19879;SDS011;10102;50.828;4.416;2024-03-08T10:02:33;24.02;;;14.40;;
19879;SDS011;10102;50.828;4.416;2024-03-08T10:04:59;24.92;;;14.55;;
19879;SDS011;10102;50.828;4.416;2024-03-08T10:07:28;24.70;;;14.70;;
19879;SDS011;10102;50.828;4.416;2024-03-08T10:09:54;22.65;;;14.02;;
19879;SDS011;10102;50.828;4.416;2024-03-08T10:12:21;23.08;;;14.35;;
19879;SDS011;10102;50.828;4.416;2024-03-08T10:14:47;22.55;;;12.75;;
19879;SDS011;10102;50.828;4.416;2024-03-08T10:17:13;25.13;;;13.65;;
19879;SDS011;10102;50.828;4.416;2024-03-08T10:19:39;22.42;;;13.60;;
19879;SDS011;10102;50.828;4.416;2024-03-08T10:22:21;22.38;;;13.88;;
19879;SDS011;10102;50.828;4.416;2024-03-08T10:24:47;21.42;;;13.23;;
19879;SDS011;10102;50.828;4.416;2024-03-08T10:27:13;21.02;;;12.63;;
19879;SDS011;10102;50.828;4.416;2024-03-08T10:29:41;23.45;;;13.70;;
19879;SDS011;10102;50.828;4.416;2024-03-08T10:32:09;30.63;;;15.05;;
19879;SDS011;10102;50.828;4.416;2024-03-08T10:34:35;25.55;;;14.43;;
19879;SDS011;10102;50.828;4.416;2024-03-08T10:37:04;22.98;;;13.75;;
19879;SDS011;10102;50.828;4.416;2024-03-08T10:39:36;21.25;;;13.52;;
19879;SDS011;10102;50.828;4.416;2024-03-08T10:42:04;26.50;;;14.68;;
19879;SDS011;10102;50.828;4.416;2024-03-08T10:44:40;22.50;;;13.73;;
19879;SDS011;10102;50.828;4.416;2024-03-08T10:47:28;20.85;;;13.20;;
19879;SDS011;10102;50.828;4.416;2024-03-08T10:49:59;22.88;;;14.25;;
19879;SDS011;10102;50.828;4.416;2024-03-08T10:52:41;22.48;;;13.25;;
19879;SDS011;10102;50.828;4.416;2024-03-08T10:55:07;22.23;;;13.48;;
19879;SDS011;10102;50.828;4.416;2024-03-08T10:57:38;21.25;;;13.90;;
19879;SDS011;10102;50.828;4.416;2024-03-08T11:00:07;22.58;;;14.20;;
19879;SDS011;10102;50.828;4.416;2024-03-08T11:02:36;25.85;;;14.88;;
19879;SDS011;10102;50.828;4.416;2024-03-08T11:05:04;22.35;;;14.25;;
19879;SDS011;10102;50.828;4.416;2024-03-08T11:07:44;24.65;;;14.55;;
19879;SDS011;10102;50.828;4.416;2024-03-08T11:10:19;20.08;;;13.68;;
19879;SDS011;10102;50.828;4.416;2024-03-08T11:12:45;19.48;;;14.68;;
19879;SDS011;10102;50.828;4.416;2024-03-08T11:15:13;20.13;;;14.88;;
19879;SDS011;10102;50.828;4.416;2024-03-08T11:22:40;20.13;;;14.90;;
19879;SDS011;10102;50.828;4.416;2024-03-08T11:25:39;21.08;;;14.05;;
19879;SDS011;10102;50.828;4.416;2024-03-08T11:30:45;21.73;;;14.00;;
19879;SDS011;10102;50.828;4.416;2024-03-08T11:33:34;22.23;;;14.52;;
19879;SDS011;10102;50.828;4.416;2024-03-08T11:38:45;20.85;;;13.73;;
19879;SDS011;10102;50.828;4.416;2024-03-08T11:41:17;20.98;;;14.80;;
19879;SDS011;10102;50.828;4.416;2024-03-08T11:43:45;23.17;;;15.77;;
19879;SDS011;10102;50.828;4.416;2024-03-08T11:46:11;19.80;;;15.02;;
19879;SDS011;10102;50.828;4.416;2024-03-08T11:48:39;18.92;;;14.43;;
19879;SDS011;10102;50.828;4.416;2024-03-08T11:51:07;17.83;;;13.77;;
19879;SDS011;10102;50.828;4.416;2024-03-08T11:53:33;18.50;;;13.80;;
19879;SDS011;10102;50.828;4.416;2024-03-08T11:56:07;18.20;;;14.48;;
19879;SDS011;10102;50.828;4.416;2024-03-08T11:58:34;15.52;;;13.38;;
19879;SDS011;10102;50.828;4.416;2024-03-08T12:01:12;20.27;;;14.10;;
19879;SDS011;10102;50.828;4.416;2024-03-08T12:03:40;21.70;;;14.23;;
19879;SDS011;10102;50.828;4.416;2024-03-08T12:06:09;16.92;;;13.70;;
19879;SDS011;10102;50.828;4.416;2024-03-08T12:08:37;17.63;;;13.95;;
19879;SDS011;10102;50.828;4.416;2024-03-08T12:11:06;18.13;;;13.85;;
19879;SDS011;10102;50.828;4.416;2024-03-08T12:13:35;17.27;;;13.65;;
19879;SDS011;10102;50.828;4.416;2024-03-08T12:16:04;16.35;;;14.50;;
19879;SDS011;10102;50.828;4.416;2024-03-08T12:18:33;19.45;;;14.63;;
19879;SDS011;10102;50.828;4.416;2024-03-08T12:21:07;24.88;;;14.50;;
19879;SDS011;10102;50.828;4.416;2024-03-08T12:23:34;18.48;;;14.63;;
19879;SDS011;10102;50.828;4.416;2024-03-08T12:26:12;16.85;;;13.10;;
19879;SDS011;10102;50.828;4.416;2024-03-08T12:28:40;15.27;;;13.48;;
19879;SDS011;10102;50.828;4.416;2024-03-08T12:31:08;19.17;;;14.95;;
19879;SDS011;10102;50.828;4.416;2024-03-08T12:33:37;18.00;;;14.63;;
19879;SDS011;10102;50.828;4.416;2024-03-08T12:36:14;19.65;;;15.13;;
19879;SDS011;10102;50.828;4.416;2024-03-08T12:38:43;18.60;;;13.68;;
19879;SDS011;10102;50.828;4.416;2024-03-08T12:41:13;18.05;;;13.32;;
19879;SDS011;10102;50.828;4.416;2024-03-08T12:43:43;19.80;;;13.40;;
19879;SDS011;10102;50.828;4.416;2024-03-08T12:46:15;16.67;;;13.70;;
19879;SDS011;10102;50.828;4.416;2024-03-08T12:48:42;19.83;;;14.75;;
19879;SDS011;10102;50.828;4.416;2024-03-08T12:51:12;16.63;;;13.73;;
19879;SDS011;10102;50.828;4.416;2024-03-08T12:53:41;17.50;;;14.00;;
19879;SDS011;10102;50.828;4.416;2024-03-08T12:56:09;17.10;;;13.70;;
19879;SDS011;10102;50.828;4.416;2024-03-08T12:58:36;19.25;;;14.50;;
19879;SDS011;10102;50.828;4.416;2024-03-08T13:01:05;16.13;;;14.23;;
19879;SDS011;10102;50.828;4.416;2024-03-08T13:03:33;17.70;;;13.70;;
19879;SDS011;10102;50.828;4.416;2024-03-08T13:06:01;18.05;;;14.50;;
19879;SDS011;10102;50.828;4.416;2024-03-08T13:08:28;17.85;;;14.77;;
19879;SDS011;10102;50.828;4.416;2024-03-08T13:10:54;20.15;;;14.32;;
19879;SDS011;10102;50.828;4.416;2024-03-08T13:13:20;17.65;;;13.18;;
19879;SDS011;10102;50.828;4.416;2024-03-08T13:15:46;21.60;;;13.45;;
19879;SDS011;10102;50.828;4.416;2024-03-08T13:18:12;18.73;;;13.55;;
19879;SDS011;10102;50.828;4.416;2024-03-08T13:20:37;17.73;;;14.02;;
19879;SDS011;10102;50.828;4.416;2024-03-08T13:23:03;17.85;;;13.15;;
19879;SDS011;10102;50.828;4.416;2024-03-08T13:25:30;18.63;;;13.65;;
19879;SDS011;10102;50.828;4.416;2024-03-08T13:27:56;17.95;;;13.45;;
19879;SDS011;10102;50.828;4.416;2024-03-08T13:30:24;21.23;;;13.25;;
19879;SDS011;10102;50.828;4.416;2024-03-08T13:32:52;20.52;;;12.98;;
19879;SDS011;10102;50.828;4.416;2024-03-08T13:35:18;18.50;;;13.27;;
19879;SDS011;10102;50.828;4.416;2024-03-08T13:37:49;18.98;;;12.30;;
19879;SDS011;10102;50.828;4.416;2024-03-08T13:40:16;18.98;;;12.75;;
19879;SDS011;10102;50.828;4.416;2024-03-08T13:42:46;20.13;;;12.70;;
19879;SDS011;10102;50.828;4.416;2024-03-08T13:45:14;25.95;;;12.65;;
19879;SDS011;10102;50.828;4.416;2024-03-08T13:47:43;24.27;;;11.98;;
19879;SDS011;10102;50.828;4.416;2024-03-08T13:50:09;19.30;;;12.50;;
19879;SDS011;10102;50.828;4.416;2024-03-08T13:52:41;16.13;;;11.82;;
19879;SDS011;10102;50.828;4.416;2024-03-08T13:55:09;19.30;;;11.98;;
19879;SDS011;10102;50.828;4.416;2024-03-08T13:57:35;18.80;;;12.13;;
19879;SDS011;10102;50.828;4.416;2024-03-08T14:00:01;22.33;;;13.00;;
19879;SDS011;10102;50.828;4.416;2024-03-08T14:02:28;27.45;;;14.32;;
19879;SDS011;10102;50.828;4.416;2024-03-08T14:04:55;24.05;;;12.52;;
19879;SDS011;10102;50.828;4.416;2024-03-08T14:07:22;23.38;;;12.45;;
19879;SDS011;10102;50.828;4.416;2024-03-08T14:09:49;19.27;;;12.07;;
19879;SDS011;10102;50.828;4.416;2024-03-08T14:12:17;23.65;;;11.68;;
19879;SDS011;10102;50.828;4.416;2024-03-08T14:14:44;20.17;;;11.65;;
19879;SDS011;10102;50.828;4.416;2024-03-08T14:17:10;21.67;;;11.60;;
19879;SDS011;10102;50.828;4.416;2024-03-08T14:19:36;18.95;;;11.13;;
19879;SDS011;10102;50.828;4.416;2024-03-08T14:22:04;22.10;;;11.68;;
19879;SDS011;10102;50.828;4.416;2024-03-08T14:24:30;20.60;;;11.07;;
19879;SDS011;10102;50.828;4.416;2024-03-08T14:26:56;17.88;;;11.25;;
19879;SDS011;10102;50.828;4.416;2024-03-08T14:29:24;19.80;;;11.80;;
19879;SDS011;10102;50.828;4.416;2024-03-08T14:31:54;19.73;;;10.75;;
19879;SDS011;10102;50.828;4.416;2024-03-08T14:34:24;17.17;;;11.00;;